FMEP/ZSE METAR and TAF weather

Enter ICAO airport designator
Station Type Date Time Source
FMEP METAR 2021/05/14 14:00 UTC NOAA

FMEP 141400Z AUTO 12017KT CAVOK 25/20 Q1017 BECMG 13022G32KT


Station Type Date Time Source
FMEP Decoded METAR 2021/05/14 14:00 UTC NOAA

Saint-Pierre, Reunion (FMEP) 21-20S 055-29E 53M
May 14, 2021 - 10:00 AM EDT / 2021.05.14 1400 UTC
Wind: from the ESE (120 degrees) at 20 MPH (17 KT):0
Visibility: greater than 7 mile(s):0
Temperature: 77 F (25 C)
Dew Point: 68 F (20 C)
Relative Humidity: 73%
Pressure (altimeter): 30.03 in. Hg (1017 hPa)
ob: FMEP 141400Z AUTO 12017KT CAVOK 25/20 Q1017 BECMG 13022G32KT
cycle: 14

Station Type Date Time Source
FMEP TAF 2020/08/08 06:00 UTC NOAA

TAF FMEP 080500Z 0806/0815 27010KT 9999 FEW030

Example: see airport list